Terminal Aerodrome Forecast
Issued by NWS

Home | Current Version | Previous Version | Graphics & Text | Print | Product List | Glossary On
Versions: 1 2 3 4 5 6 7 8 9 10 11 12 13 14 15 16
151
FTUS43 KOAX 140413 AAA
TAFCDR
TAF AMD
KCDR 140413Z 1404/1424 32005KT P6SM -RA BKN100
     FM140600 VRB05KT P6SM BKN150
     FM141800 12007KT P6SM SCT100=

USA.gov is the U.S. government's official web portal to all federal, state and local government web resources and services.